createdAt,value
2019-02-15T00:00:57.180Z,6.73
2019-02-15T00:03:28.230Z,6.72
2019-02-15T00:05:59.228Z,6.70
2019-02-15T00:08:31.661Z,6.70
2019-02-15T00:11:03.214Z,6.73
2019-02-15T00:13:34.468Z,6.54
2019-02-15T00:16:05.863Z,6.60
2019-02-15T00:19:04.913Z,6.65
2019-02-15T00:21:47.509Z,6.41
2019-02-15T00:24:19.154Z,6.31
2019-02-15T00:26:50.697Z,6.39
2019-02-15T00:29:21.677Z,6.27
2019-02-15T00:31:53.264Z,6.35
2019-02-15T00:34:24.266Z,6.37
2019-02-15T00:36:55.290Z,6.45
2019-02-15T00:39:26.583Z,6.44
2019-02-15T00:41:57.816Z,6.53
2019-02-15T00:44:29.034Z,6.46
2019-02-15T00:47:19.283Z,6.43
2019-02-15T00:50:00.645Z,6.35
2019-02-15T00:52:45.643Z,6.22
2019-02-15T00:55:47.773Z,6.08
2019-02-15T00:58:36.683Z,6.14
2019-02-15T01:01:18.563Z,6.10
2019-02-15T01:04:06.612Z,6.15
2019-02-15T01:06:56.609Z,6.14
2019-02-15T01:09:44.255Z,6.09
2019-02-15T01:12:20.227Z,6.24
2019-02-15T01:14:51.531Z,6.07
2019-02-15T01:17:23.111Z,6.06
2019-02-15T01:19:54.675Z,6.09
2019-02-15T01:22:26.738Z,6.06
2019-02-15T01:24:58.266Z,5.94
2019-02-15T01:27:45.678Z,6.08
2019-02-15T01:30:38.791Z,6.24
2019-02-15T01:33:16.551Z,6.27
2019-02-15T01:36:01.642Z,6.16
2019-02-15T01:38:40.471Z,6.29
2019-02-15T01:41:20.956Z,6.28
2019-02-15T01:43:56.693Z,6.17
2019-02-15T01:46:31.924Z,6.23
2019-02-15T01:49:03.226Z,6.17
2019-02-15T01:51:35.392Z,6.22
2019-02-15T01:54:06.643Z,6.26
2019-02-15T01:56:37.992Z,6.21
2019-02-15T01:59:09.324Z,6.16
2019-02-15T02:01:40.588Z,6.05
2019-02-15T02:04:11.655Z,6.05
2019-02-15T02:06:42.974Z,5.90
2019-02-15T02:09:14.223Z,5.89
2019-02-15T02:11:45.520Z,5.89
2019-02-15T02:14:16.689Z,5.98
2019-02-15T02:16:48.486Z,6.14
2019-02-15T02:19:19.958Z,6.16
2019-02-15T02:21:50.995Z,6.16
2019-02-15T02:24:21.984Z,6.15
2019-02-15T02:26:53.256Z,6.04
2019-02-15T02:29:24.221Z,6.07
2019-02-15T02:31:55.865Z,6.04
2019-02-15T02:34:27.307Z,6.07
2019-02-15T02:36:59.543Z,6.08
2019-02-15T02:39:32.042Z,5.96
2019-02-15T02:42:03.001Z,6.08
2019-02-15T02:44:34.261Z,6.16
2019-02-15T02:47:05.298Z,6.14
2019-02-15T02:49:36.338Z,6.14
2019-02-15T02:52:07.559Z,6.12
2019-02-15T02:54:38.525Z,6.10
2019-02-15T02:57:09.959Z,6.11
2019-02-15T02:59:41.028Z,6.00
2019-02-15T03:02:11.991Z,6.12
2019-02-15T03:04:43.277Z,6.00
2019-02-15T03:07:14.619Z,5.95
2019-02-15T03:09:46.124Z,5.83
2019-02-15T03:12:17.086Z,5.97
2019-02-15T03:14:48.062Z,6.02
2019-02-15T03:17:19.293Z,5.97
2019-02-15T03:19:50.668Z,5.94
2019-02-15T03:22:21.708Z,5.81
2019-02-15T03:24:52.686Z,5.86
2019-02-15T03:27:24.485Z,5.88
2019-02-15T03:29:56.553Z,5.67
2019-02-15T03:32:28.074Z,5.57
2019-02-15T03:34:59.073Z,5.56
2019-02-15T03:37:40.535Z,5.71
2019-02-15T03:40:16.803Z,5.75
2019-02-15T03:42:48.090Z,5.77
2019-02-15T03:45:19.701Z,5.64
2019-02-15T03:47:50.738Z,5.62
2019-02-15T03:50:22.494Z,5.55
2019-02-15T03:52:53.642Z,5.60
2019-02-15T03:55:25.180Z,5.37
2019-02-15T03:57:56.455Z,5.35
2019-02-15T04:00:27.810Z,5.23
2019-02-15T04:02:58.776Z,5.15
2019-02-15T04:05:30.191Z,5.48
2019-02-15T04:08:02.465Z,5.43
2019-02-15T04:10:33.450Z,5.50
2019-02-15T04:13:04.455Z,5.69
2019-02-15T04:15:36.157Z,5.61
2019-02-15T04:18:07.849Z,5.53
2019-02-15T04:20:38.935Z,5.58
2019-02-15T04:23:09.906Z,5.36
2019-02-15T04:25:41.213Z,5.47
2019-02-15T04:28:12.544Z,5.49
2019-02-15T04:30:43.975Z,5.53
2019-02-15T04:33:15.245Z,5.50
2019-02-15T04:35:46.271Z,5.49
2019-02-15T04:38:17.335Z,5.53
2019-02-15T04:40:48.293Z,5.46
2019-02-15T04:43:19.256Z,5.50
2019-02-15T04:45:50.400Z,5.56
2019-02-15T04:48:21.380Z,5.49
2019-02-15T04:50:52.706Z,5.53
2019-02-15T04:53:24.005Z,5.60
2019-02-15T04:55:56.042Z,5.59
2019-02-15T04:58:27.043Z,5.56
2019-02-15T05:00:58.317Z,5.60
2019-02-15T05:03:29.717Z,5.58
2019-02-15T05:06:01.248Z,5.49
2019-02-15T05:08:32.372Z,5.22
2019-02-15T05:11:03.350Z,5.30
2019-02-15T05:13:34.959Z,5.46
2019-02-15T05:16:06.255Z,5.50
2019-02-15T05:18:37.746Z,5.65
2019-02-15T05:21:09.309Z,5.58
2019-02-15T05:23:40.595Z,5.43
2019-02-15T05:26:11.894Z,5.48
2019-02-15T05:28:42.973Z,5.48
2019-02-15T05:31:14.193Z,5.52
2019-02-15T05:33:45.569Z,5.47
2019-02-15T05:36:17.439Z,5.48
2019-02-15T05:38:48.704Z,5.53
2019-02-15T05:41:20.398Z,5.65
2019-02-15T05:43:51.853Z,5.52
2019-02-15T05:46:23.130Z,5.38
2019-02-15T05:48:54.096Z,5.51
2019-02-15T05:51:25.120Z,5.54
2019-02-15T05:53:56.110Z,5.57
2019-02-15T05:56:27.098Z,5.53
2019-02-15T05:58:58.114Z,5.52
2019-02-15T06:01:30.125Z,5.55
2019-02-15T06:04:01.115Z,5.56
2019-02-15T06:06:32.864Z,5.55
2019-02-15T06:09:04.848Z,5.54
2019-02-15T06:11:35.809Z,5.55
2019-02-15T06:14:07.115Z,5.52
2019-02-15T06:16:38.772Z,5.54
2019-02-15T06:19:10.453Z,5.45
2019-02-15T06:21:42.075Z,5.43
2019-02-15T06:24:13.105Z,5.11
2019-02-15T06:26:44.288Z,5.02
2019-02-15T06:29:15.927Z,5.24
2019-02-15T06:31:47.277Z,5.13
2019-02-15T06:34:18.618Z,5.16
2019-02-15T06:36:49.657Z,5.11
2019-02-15T06:39:21.207Z,5.12
2019-02-15T06:41:52.499Z,5.13
2019-02-15T06:44:23.485Z,5.11
2019-02-15T06:46:55.169Z,5.10
2019-02-15T06:49:26.176Z,5.23
2019-02-15T06:51:58.128Z,5.02
2019-02-15T06:54:29.087Z,5.01
2019-02-15T06:57:00.443Z,5.21
2019-02-15T06:59:43.772Z,5.14
2019-02-15T07:02:19.235Z,5.07
2019-02-15T07:05:08.286Z,5.08
2019-02-15T07:07:39.534Z,4.96
2019-02-15T07:10:10.800Z,4.96
2019-02-15T07:12:42.288Z,4.97
2019-02-15T07:15:14.150Z,5.02
2019-02-15T07:17:46.141Z,5.19
2019-02-15T07:20:18.201Z,5.25
2019-02-15T07:22:50.929Z,5.28
2019-02-15T07:25:21.977Z,5.35
2019-02-15T07:27:52.961Z,5.43
2019-02-15T07:30:24.030Z,5.42
2019-02-15T07:32:55.244Z,5.38
2019-02-15T07:35:26.553Z,5.42
2019-02-15T07:37:57.677Z,5.56
2019-02-15T07:40:28.897Z,5.61
2019-02-15T07:42:59.921Z,5.67
2019-02-15T07:45:31.243Z,5.71
2019-02-15T07:48:03.459Z,5.89
2019-02-15T07:50:34.742Z,5.96
2019-02-15T07:53:05.934Z,6.05
2019-02-15T07:55:39.534Z,6.20
2019-02-15T07:58:11.292Z,6.29
2019-02-15T08:00:42.601Z,6.29
2019-02-15T08:03:13.927Z,6.36
2019-02-15T08:05:45.492Z,6.51
2019-02-15T08:08:17.678Z,6.70
2019-02-15T08:10:48.879Z,6.80
2019-02-15T08:13:19.821Z,6.88
2019-02-15T08:15:52.265Z,6.87
2019-02-15T08:18:23.841Z,7.05
2019-02-15T08:20:56.110Z,7.32
2019-02-15T08:23:27.576Z,7.56
2019-02-15T08:25:58.899Z,7.89
2019-02-15T08:28:30.281Z,8.05
2019-02-15T08:31:01.338Z,8.32
2019-02-15T08:33:33.197Z,8.39
2019-02-15T08:36:04.725Z,8.47
2019-02-15T08:38:35.992Z,8.50
2019-02-15T08:41:07.633Z,8.62
2019-02-15T08:43:38.785Z,8.85
2019-02-15T08:46:10.147Z,9.01
2019-02-15T08:48:46.362Z,9.23
2019-02-15T08:51:14.756Z,9.32
2019-02-15T08:53:46.024Z,9.51
2019-02-15T08:56:18.160Z,9.72
2019-02-15T08:58:50.064Z,9.97
2019-02-15T09:01:21.670Z,10.11
2019-02-15T09:03:53.375Z,10.26
2019-02-15T09:06:24.601Z,10.35
2019-02-15T09:08:55.834Z,10.43
2019-02-15T09:11:30.392Z,10.60
2019-02-15T09:14:01.806Z,10.84
2019-02-15T09:16:33.584Z,10.98
2019-02-15T09:19:04.628Z,11.15
2019-02-15T09:21:35.862Z,11.27
2019-02-15T09:24:06.843Z,11.42
2019-02-15T09:26:37.828Z,11.56
2019-02-15T09:29:10.550Z,11.76
2019-02-15T09:31:42.062Z,11.95
2019-02-15T09:34:13.748Z,12.16
2019-02-15T09:36:45.068Z,12.18
2019-02-15T09:39:16.033Z,12.26
2019-02-15T09:41:47.104Z,12.37
2019-02-15T09:44:18.076Z,12.50
2019-02-15T09:46:50.165Z,12.73
2019-02-15T09:49:22.234Z,12.83
2019-02-15T09:51:55.573Z,12.88
2019-02-15T09:54:26.678Z,12.89
2019-02-15T09:56:57.712Z,12.99
2019-02-15T09:59:28.966Z,12.96
2019-02-15T10:02:00.604Z,12.80
2019-02-15T10:04:33.036Z,12.99
2019-02-15T10:07:05.367Z,13.01
2019-02-15T10:09:37.088Z,13.14
2019-02-15T10:12:08.701Z,13.12
2019-02-15T10:14:39.701Z,13.09
2019-02-15T10:17:10.985Z,13.15
2019-02-15T10:19:42.516Z,13.24
2019-02-15T10:22:14.082Z,13.29
2019-02-15T10:24:45.421Z,13.34
2019-02-15T10:27:16.471Z,13.15
2019-02-15T10:29:47.442Z,13.19
2019-02-15T10:32:18.746Z,13.35
2019-02-15T10:34:49.805Z,13.36
2019-02-15T10:37:20.838Z,13.49
2019-02-15T10:39:52.263Z,13.52
2019-02-15T10:42:23.310Z,13.51
2019-02-15T10:44:54.365Z,13.48
2019-02-15T10:47:25.547Z,13.51
2019-02-15T10:49:57.007Z,13.43
2019-02-15T10:52:27.983Z,13.67
2019-02-15T10:54:59.030Z,13.79
2019-02-15T10:57:30.012Z,13.82
2019-02-15T11:00:01.725Z,13.77
2019-02-15T11:02:33.808Z,13.88
2019-02-15T11:05:05.208Z,13.91
2019-02-15T11:07:36.797Z,14.15
2019-02-15T11:10:08.561Z,14.21
2019-02-15T11:12:39.898Z,14.27
2019-02-15T11:15:12.447Z,14.33
2019-02-15T11:17:43.865Z,14.44
2019-02-15T11:20:15.423Z,14.51
2019-02-15T11:22:47.047Z,14.53
2019-02-15T11:25:18.917Z,14.63
2019-02-15T11:27:50.656Z,14.79
2019-02-15T11:30:21.897Z,14.94
2019-02-15T11:32:53.119Z,15.08
2019-02-15T11:35:24.695Z,15.26
2019-02-15T11:37:55.762Z,15.40
2019-02-15T11:40:26.738Z,15.43
2019-02-15T11:42:57.731Z,15.70
2019-02-15T11:45:28.883Z,15.87
2019-02-15T11:47:59.928Z,16.13
2019-02-15T11:50:31.166Z,16.36
2019-02-15T11:53:02.325Z,16.44
2019-02-15T11:55:33.866Z,16.39
2019-02-15T11:58:04.923Z,16.47
2019-02-15T12:00:36.558Z,16.60
2019-02-15T12:03:07.538Z,16.71
2019-02-15T12:05:38.867Z,16.95
2019-02-15T12:08:10.337Z,16.96
2019-02-15T12:10:41.557Z,16.99
2019-02-15T12:13:12.847Z,17.01
2019-02-15T12:15:43.901Z,17.13
2019-02-15T12:18:15.149Z,17.20
2019-02-15T12:20:47.226Z,17.30
2019-02-15T12:23:19.519Z,17.45
2019-02-15T12:25:50.550Z,17.51
2019-02-15T12:28:21.782Z,17.55
2019-02-15T12:30:53.344Z,17.52
2019-02-15T12:33:24.587Z,17.54
2019-02-15T12:35:55.939Z,17.54
2019-02-15T12:38:27.286Z,17.54
2019-02-15T12:40:58.418Z,17.54
2019-02-15T12:43:29.491Z,17.47
2019-02-15T12:46:01.576Z,17.57
2019-02-15T12:48:34.076Z,17.61
2019-02-15T12:51:06.006Z,17.76
2019-02-15T12:53:37.629Z,17.80
2019-02-15T12:56:08.903Z,17.92
2019-02-15T12:58:40.530Z,18.02
2019-02-15T13:01:12.083Z,17.95
2019-02-15T13:03:43.404Z,17.85
2019-02-15T13:06:14.678Z,17.53
2019-02-15T13:08:46.067Z,17.56
2019-02-15T13:11:17.770Z,17.56
2019-02-15T13:13:48.760Z,17.47
2019-02-15T13:16:20.001Z,17.55
2019-02-15T13:18:51.532Z,17.57
2019-02-15T13:21:22.813Z,17.53
2019-02-15T13:23:54.034Z,17.67
2019-02-15T13:26:25.619Z,17.73
2019-02-15T13:28:56.916Z,17.85
2019-02-15T13:31:28.492Z,17.65
2019-02-15T13:33:59.831Z,17.70
2019-02-15T13:36:31.083Z,17.66
2019-02-15T13:39:02.382Z,17.62
2019-02-15T13:41:34.688Z,17.65
2019-02-15T13:44:05.861Z,17.70
2019-02-15T13:46:37.287Z,17.73
2019-02-15T13:49:08.361Z,17.65
2019-02-15T13:51:39.593Z,17.53
2019-02-15T13:54:10.586Z,17.34
2019-02-15T13:56:42.102Z,17.18
2019-02-15T13:59:13.374Z,17.28
2019-02-15T14:01:44.901Z,17.43
2019-02-15T14:04:16.361Z,17.48
2019-02-15T14:06:57.694Z,17.65
2019-02-15T14:09:28.751Z,17.62
2019-02-15T14:12:00.252Z,17.44
2019-02-15T14:14:31.274Z,17.44
2019-02-15T14:17:03.160Z,17.43
2019-02-15T14:19:34.250Z,17.39
2019-02-15T14:22:06.027Z,17.31
2019-02-15T14:24:37.682Z,17.34
2019-02-15T14:27:08.633Z,17.34
2019-02-15T14:29:40.246Z,17.37
2019-02-15T14:32:11.696Z,17.35
2019-02-15T14:34:42.960Z,17.32
2019-02-15T14:37:14.197Z,17.30
2019-02-15T14:39:45.186Z,17.37
2019-02-15T14:42:16.292Z,17.37
2019-02-15T14:44:47.857Z,17.45
2019-02-15T14:47:19.399Z,17.50
2019-02-15T14:49:50.469Z,17.53
2019-02-15T14:52:22.087Z,17.49
2019-02-15T14:54:53.140Z,17.49
2019-02-15T14:57:24.478Z,17.52
2019-02-15T14:59:55.844Z,17.55
2019-02-15T15:02:27.311Z,17.55
2019-02-15T15:04:58.356Z,17.46
2019-02-15T15:07:29.645Z,17.48
2019-02-15T15:10:00.671Z,17.44
2019-02-15T15:12:31.673Z,17.47
2019-02-15T15:15:03.472Z,17.44
2019-02-15T15:17:34.539Z,17.43
2019-02-15T15:20:06.581Z,17.48
2019-02-15T15:22:38.146Z,17.42
2019-02-15T15:25:10.919Z,17.46
2019-02-15T15:27:42.092Z,17.43
2019-02-15T15:30:13.602Z,17.43
2019-02-15T15:32:44.812Z,17.43
2019-02-15T15:35:15.972Z,17.39
2019-02-15T15:37:46.932Z,17.32
2019-02-15T15:40:19.441Z,17.35
2019-02-15T15:42:50.472Z,17.29
2019-02-15T15:45:21.908Z,17.31
2019-02-15T15:47:52.909Z,17.32
2019-02-15T15:50:24.287Z,17.32
2019-02-15T15:52:55.867Z,17.28
2019-02-15T15:55:26.998Z,17.21
2019-02-15T15:57:58.036Z,17.14
2019-02-15T16:00:38.451Z,17.12
2019-02-15T16:03:01.923Z,17.08
2019-02-15T16:05:33.469Z,17.04
2019-02-15T16:08:04.504Z,17.03
2019-02-15T16:10:35.558Z,16.97
2019-02-15T16:13:07.266Z,16.96
2019-02-15T16:15:38.280Z,16.87
2019-02-15T16:18:09.356Z,16.83
2019-02-15T16:20:41.037Z,16.79
2019-02-15T16:23:12.357Z,16.74
2019-02-15T16:25:44.074Z,16.70
2019-02-15T16:28:15.082Z,16.59
2019-02-15T16:30:46.431Z,16.52
2019-02-15T16:33:17.463Z,16.44
2019-02-15T16:35:48.521Z,16.34
2019-02-15T16:38:19.534Z,16.28
2019-02-15T16:40:51.080Z,16.23
2019-02-15T16:43:22.756Z,16.15
2019-02-15T16:45:53.829Z,16.04
2019-02-15T16:48:25.135Z,16.01
2019-02-15T16:50:56.551Z,15.88
2019-02-15T16:53:27.822Z,15.80
2019-02-15T16:55:59.041Z,15.70
2019-02-15T16:58:30.327Z,15.59
2019-02-15T17:01:02.803Z,15.44
2019-02-15T17:03:34.791Z,15.19
2019-02-15T17:06:05.941Z,15.16
2019-02-15T17:08:36.965Z,15.12
2019-02-15T17:11:08.291Z,15.08
2019-02-15T17:13:39.795Z,15.08
2019-02-15T17:16:11.554Z,15.04
2019-02-15T17:18:51.486Z,15.09
2019-02-15T17:21:16.175Z,15.08
2019-02-15T17:23:48.409Z,15.05
2019-02-15T17:26:20.200Z,15.05
2019-02-15T17:28:51.203Z,15.00
2019-02-15T17:31:22.472Z,14.93
2019-02-15T17:33:54.012Z,14.77
2019-02-15T17:36:25.509Z,14.60
2019-02-15T17:38:56.827Z,14.36
2019-02-15T17:41:28.225Z,14.17
2019-02-15T17:43:59.507Z,14.02
2019-02-15T17:46:30.602Z,13.96
2019-02-15T17:49:03.404Z,13.76
2019-02-15T17:51:34.996Z,13.63
2019-02-15T17:54:06.115Z,13.54
2019-02-15T17:56:37.540Z,13.39
2019-02-15T17:59:08.864Z,13.19
2019-02-15T18:01:40.823Z,13.06
2019-02-15T18:04:12.140Z,12.99
2019-02-15T18:06:43.378Z,12.86
2019-02-15T18:09:14.589Z,12.79
2019-02-15T18:11:45.981Z,12.66
2019-02-15T18:14:16.994Z,12.60
2019-02-15T18:16:48.172Z,12.40
2019-02-15T18:19:20.033Z,12.38
2019-02-15T18:21:51.305Z,12.10
2019-02-15T18:24:23.073Z,12.02
2019-02-15T18:26:54.378Z,12.01
2019-02-15T18:29:26.137Z,11.86
2019-02-15T18:31:57.139Z,11.80
2019-02-15T18:34:28.235Z,11.74
2019-02-15T18:36:59.724Z,11.58
2019-02-15T18:39:30.939Z,11.62
2019-02-15T18:42:02.833Z,11.58
2019-02-15T18:44:34.143Z,11.52
2019-02-15T18:47:05.643Z,11.42
2019-02-15T18:49:37.147Z,11.43
2019-02-15T18:52:08.189Z,11.25
2019-02-15T18:54:39.614Z,11.24
2019-02-15T18:57:11.194Z,11.14
2019-02-15T18:59:42.730Z,11.11
2019-02-15T19:02:14.151Z,11.06
2019-02-15T19:04:45.144Z,11.15
2019-02-15T19:07:16.788Z,10.93
2019-02-15T19:09:47.849Z,10.93
2019-02-15T19:12:19.357Z,10.86
2019-02-15T19:14:50.377Z,10.85
2019-02-15T19:17:21.384Z,10.83
2019-02-15T19:19:52.424Z,10.82
2019-02-15T19:22:23.950Z,10.84
2019-02-15T19:24:55.179Z,10.74
2019-02-15T19:27:26.802Z,10.78
2019-02-15T19:29:58.123Z,10.61
2019-02-15T19:32:29.303Z,10.67
2019-02-15T19:35:00.313Z,10.59
2019-02-15T19:37:32.610Z,10.57
2019-02-15T19:40:03.855Z,10.34
2019-02-15T19:42:36.141Z,10.32
2019-02-15T19:45:09.456Z,10.21
2019-02-15T19:47:40.675Z,10.25
2019-02-15T19:50:14.131Z,10.18
2019-02-15T19:52:46.116Z,10.11
2019-02-15T19:55:17.516Z,10.20
2019-02-15T19:57:49.482Z,10.27
2019-02-15T20:00:21.811Z,10.27
2019-02-15T20:02:52.837Z,10.22
2019-02-15T20:05:23.803Z,10.32
2019-02-15T20:07:55.797Z,10.36
2019-02-15T20:10:27.329Z,10.44
2019-02-15T20:12:58.335Z,10.40
2019-02-15T20:15:29.358Z,10.43
2019-02-15T20:18:00.418Z,10.37
2019-02-15T20:20:31.514Z,10.25
2019-02-15T20:23:02.526Z,10.29
2019-02-15T20:25:33.926Z,10.34
2019-02-15T20:28:13.657Z,10.37
2019-02-15T20:30:38.883Z,10.31
2019-02-15T20:33:10.577Z,10.34
2019-02-15T20:35:41.631Z,10.34
2019-02-15T20:38:12.949Z,10.27
2019-02-15T20:40:44.284Z,10.26
2019-02-15T20:43:15.705Z,10.29
2019-02-15T20:45:46.689Z,10.27
2019-02-15T20:48:18.020Z,10.25
2019-02-15T20:50:49.296Z,10.18
2019-02-15T20:53:20.331Z,10.19
2019-02-15T20:55:51.931Z,10.29
2019-02-15T20:58:22.972Z,10.34
2019-02-15T21:00:56.148Z,10.44
2019-02-15T21:03:27.488Z,10.48
2019-02-15T21:05:58.610Z,10.47
2019-02-15T21:08:29.819Z,10.55
2019-02-15T21:11:00.974Z,10.52
2019-02-15T21:13:32.340Z,10.57
2019-02-15T21:16:03.641Z,10.61
2019-02-15T21:18:36.793Z,10.62
2019-02-15T21:21:08.139Z,10.47
2019-02-15T21:23:39.219Z,10.44
2019-02-15T21:26:10.860Z,10.43
2019-02-15T21:28:42.227Z,10.41
2019-02-15T21:31:13.471Z,10.47
2019-02-15T21:33:44.820Z,10.41
2019-02-15T21:36:17.211Z,10.43
2019-02-15T21:38:48.387Z,10.42
2019-02-15T21:41:19.711Z,10.31
2019-02-15T21:43:50.781Z,10.33
2019-02-15T21:46:23.507Z,10.39
2019-02-15T21:48:55.019Z,10.36
2019-02-15T21:51:26.366Z,10.26
2019-02-15T21:53:57.510Z,10.25
2019-02-15T21:56:28.515Z,10.11
2019-02-15T21:58:59.584Z,10.09
2019-02-15T22:01:30.897Z,10.03
2019-02-15T22:04:02.163Z,9.99
2019-02-15T22:06:33.380Z,10.01
2019-02-15T22:09:06.462Z,9.83
2019-02-15T22:11:38.500Z,9.74
2019-02-15T22:14:09.492Z,9.69
2019-02-15T22:16:40.530Z,9.55
2019-02-15T22:19:11.521Z,9.44
2019-02-15T22:21:42.799Z,9.44
2019-02-15T22:24:14.368Z,9.41
2019-02-15T22:26:45.412Z,9.21
2019-02-15T22:29:16.754Z,9.16
2019-02-15T22:31:47.749Z,9.05
2019-02-15T22:34:19.237Z,8.83
2019-02-15T22:36:50.482Z,8.73
2019-02-15T22:39:21.453Z,8.64
2019-02-15T22:41:52.769Z,8.59
2019-02-15T22:44:23.879Z,8.87
2019-02-15T22:46:55.224Z,8.47
2019-02-15T22:49:26.507Z,8.38
2019-02-15T22:51:58.148Z,8.34
2019-02-15T22:54:29.118Z,8.29
2019-02-15T22:57:00.446Z,8.38
2019-02-15T22:59:31.526Z,8.24
2019-02-15T23:02:02.565Z,8.45
2019-02-15T23:04:33.789Z,8.52
2019-02-15T23:07:04.821Z,8.45
2019-02-15T23:09:36.809Z,8.54
2019-02-15T23:12:07.833Z,8.39
2019-02-15T23:14:38.878Z,8.42
2019-02-15T23:17:10.418Z,8.45
2019-02-15T23:19:41.428Z,8.43
2019-02-15T23:22:12.674Z,8.33
2019-02-15T23:24:43.664Z,8.36
2019-02-15T23:27:14.890Z,8.33
2019-02-15T23:29:45.858Z,8.33
2019-02-15T23:32:17.104Z,8.23
2019-02-15T23:34:48.074Z,8.16
2019-02-15T23:37:19.181Z,8.19
2019-02-15T23:39:50.155Z,8.18
2019-02-15T23:42:21.449Z,8.18
2019-02-15T23:44:52.416Z,8.21
2019-02-15T23:47:24.665Z,8.15
2019-02-15T23:49:55.702Z,8.10
2019-02-15T23:52:27.017Z,8.12
2019-02-15T23:54:58.292Z,8.18
2019-02-15T23:57:29.347Z,8.02
